Time;durP1;ratioP1;P1;durP2;ratioP2;P2;SDS_P1;SDS_P2;PMS_P1;PMS_P2;Temp;Humidity;BMP_temperature;BMP_pressure;BME280_temperature;BME280_humidity;BME280_pressure;Samples;Min_cycle;Max_cycle;Signal;HPM_P1;HPM_P2
2022/09/16 00:01:52;;;;;;;10.53;8.00;;;;;;;;;;5093524;28;20489;-71
2022/09/16 00:04:19;;;;;;;10.60;7.73;;;;;;;;;;5093543;28;20487;-71
2022/09/16 00:06:46;;;;;;;13.53;10.30;;;;;;;;;;5093823;28;20469;-71
2022/09/16 00:09:15;;;;;;;12.20;9.97;;;;;;;;;;5093794;28;20790;-71
2022/09/16 00:11:42;;;;;;;9.47;7.70;;;;;;;;;;5093782;28;20458;-71
2022/09/16 00:14:10;;;;;;;12.87;9.17;;;;;;;;;;5093785;28;20959;-71
2022/09/16 00:16:37;;;;;;;13.77;9.40;;;;;;;;;;5093423;28;20466;-71
2022/09/16 00:19:04;;;;;;;10.20;8.00;;;;;;;;;;5093436;28;20446;-71
2022/09/16 00:21:32;;;;;;;11.57;7.90;;;;;;;;;;5093225;28;20483;-71
2022/09/16 00:23:59;;;;;;;11.77;8.27;;;;;;;;;;5092602;28;20474;-71
2022/09/16 00:26:28;;;;;;;13.30;9.77;;;;;;;;;;5093305;28;20450;-71
2022/09/16 00:28:55;;;;;;;10.60;8.40;;;;;;;;;;5093425;28;20553;-71
2022/09/16 00:31:23;;;;;;;10.90;8.47;;;;;;;;;;5093186;28;20443;-71
2022/09/16 00:33:50;;;;;;;12.63;9.20;;;;;;;;;;5092776;28;20479;-71
2022/09/16 00:36:18;;;;;;;8.77;7.87;;;;;;;;;;5093501;28;20466;-71
2022/09/16 00:38:45;;;;;;;11.00;7.80;;;;;;;;;;5093180;28;20454;-71
2022/09/16 00:41:18;;;;;;;20.47;8.73;;;;;;;;;;5093144;28;20462;-71
2022/09/16 00:43:51;;;;;;;14.23;8.10;;;;;;;;;;5093027;28;20933;-71
2022/09/16 00:46:19;;;;;;;12.50;9.60;;;;;;;;;;5093356;28;20936;-71
2022/09/16 00:48:47;;;;;;;9.60;7.93;;;;;;;;;;5093412;28;20447;-71
2022/09/16 00:51:15;;;;;;;10.33;8.77;;;;;;;;;;5093317;28;20817;-71
2022/09/16 00:53:44;;;;;;;10.57;8.33;;;;;;;;;;5092931;28;20512;-71
2022/09/16 00:56:13;;;;;;;15.50;8.23;;;;;;;;;;5093279;28;20803;-71
2022/09/16 00:58:43;;;;;;;14.10;12.43;;;;;;;;;;5093144;28;20455;-72
2022/09/16 01:01:12;;;;;;;12.20;10.47;;;;;;;;;;5093486;28;20446;-72
2022/09/16 01:03:42;;;;;;;11.00;8.53;;;;;;;;;;5092797;28;20454;-72
2022/09/16 01:06:10;;;;;;;10.33;7.60;;;;;;;;;;5099204;28;20797;-72
2022/09/16 01:08:37;;;;;;;10.87;8.37;;;;;;;;;;5099794;28;20450;-72
2022/09/16 01:11:04;;;;;;;11.90;8.23;;;;;;;;;;5100120;28;20447;-72
2022/09/16 01:13:31;;;;;;;9.40;8.37;;;;;;;;;;5099387;28;20469;-72
2022/09/16 01:16:00;;;;;;;9.53;7.30;;;;;;;;;;5099779;28;20450;-72
2022/09/16 01:18:32;;;;;;;7.60;6.53;;;;;;;;;;5099578;28;20454;-72
2022/09/16 01:21:12;;;;;;;10.43;8.70;;;;;;;;;;5099886;28;20468;-72
2022/09/16 01:23:51;;;;;;;8.33;7.00;;;;;;;;;;5098671;28;20442;-71
2022/09/16 01:26:23;;;;;;;11.10;7.27;;;;;;;;;;5099619;28;20465;-71
2022/09/16 01:29:15;;;;;;;10.87;7.60;;;;;;;;;;5099502;28;20458;-71
2022/09/16 01:31:47;;;;;;;11.50;7.73;;;;;;;;;;5099561;28;20454;-71
2022/09/16 01:34:20;;;;;;;11.03;7.93;;;;;;;;;;5099238;28;20470;-72
2022/09/16 01:36:49;;;;;;;9.50;7.50;;;;;;;;;;5099418;28;20450;-72
2022/09/16 01:39:24;;;;;;;14.40;8.13;;;;;;;;;;5099509;28;20442;-72
2022/09/16 01:41:57;;;;;;;11.37;8.80;;;;;;;;;;5099517;28;20823;-72
2022/09/16 01:44:26;;;;;;;12.47;7.37;;;;;;;;;;5099103;28;20474;-72
2022/09/16 01:46:59;;;;;;;13.83;8.87;;;;;;;;;;5099645;28;20446;-72
2022/09/16 01:49:31;;;;;;;8.50;7.43;;;;;;;;;;5099415;28;20477;-71
2022/09/16 01:52:05;;;;;;;7.50;6.70;;;;;;;;;;5099772;28;20819;-71
2022/09/16 01:54:36;;;;;;;9.23;6.67;;;;;;;;;;5099087;28;21005;-71
2022/09/16 01:57:06;;;;;;;10.30;7.10;;;;;;;;;;5099325;28;20450;-71
2022/09/16 01:59:38;;;;;;;11.80;7.10;;;;;;;;;;5099544;28;20851;-71
2022/09/16 02:02:09;;;;;;;9.23;7.27;;;;;;;;;;5099580;28;20998;-72
2022/09/16 02:04:38;;;;;;;7.80;6.33;;;;;;;;;;5099062;28;20477;-72
2022/09/16 02:07:06;;;;;;;15.20;7.23;;;;;;;;;;5099323;28;20457;-72
2022/09/16 02:09:35;;;;;;;13.10;7.23;;;;;;;;;;5099174;28;20462;-72
2022/09/16 02:12:04;;;;;;;10.07;8.33;;;;;;;;;;5099434;28;20454;-72
2022/09/16 02:14:34;;;;;;;11.43;8.00;;;;;;;;;;5099018;28;20474;-72
2022/09/16 02:17:02;;;;;;;11.23;7.07;;;;;;;;;;5096006;28;20462;-72
2022/09/16 02:19:32;;;;;;;17.00;8.50;;;;;;;;;;5096076;28;20450;-72
2022/09/16 02:22:01;;;;;;;11.87;9.07;;;;;;;;;;5096035;28;20478;-72
2022/09/16 02:24:29;;;;;;;7.73;6.93;;;;;;;;;;5095120;28;20497;-72
2022/09/16 02:26:59;;;;;;;11.83;8.57;;;;;;;;;;5096075;28;20451;-72
2022/09/16 02:29:28;;;;;;;10.43;7.70;;;;;;;;;;5095616;28;20545;-72
2022/09/16 02:31:58;;;;;;;11.77;8.27;;;;;;;;;;5095856;28;20439;-72
2022/09/16 02:34:28;;;;;;;10.47;8.03;;;;;;;;;;5095285;28;21006;-72
2022/09/16 02:36:59;;;;;;;8.90;7.47;;;;;;;;;;5095813;28;20506;-72
2022/09/16 02:39:29;;;;;;;7.47;6.60;;;;;;;;;;5095547;28;20932;-72
2022/09/16 02:41:56;;;;;;;10.87;7.70;;;;;;;;;;5095356;28;20482;-73
2022/09/16 02:44:24;;;;;;;7.30;6.60;;;;;;;;;;5095168;28;20478;-72
2022/09/16 02:46:56;;;;;;;10.10;7.40;;;;;;;;;;5095596;28;20447;-72
2022/09/16 02:49:27;;;;;;;9.93;7.30;;;;;;;;;;5095422;28;20455;-72
2022/09/16 02:51:58;;;;;;;9.40;7.53;;;;;;;;;;5095941;28;20832;-72
2022/09/16 02:54:27;;;;;;;11.60;7.30;;;;;;;;;;5095022;28;20471;-72
2022/09/16 02:56:55;;;;;;;11.27;7.10;;;;;;;;;;5095196;28;20494;-72
2022/09/16 02:59:23;;;;;;;12.57;8.53;;;;;;;;;;5095098;28;20451;-72
2022/09/16 03:01:50;;;;;;;9.40;7.50;;;;;;;;;;5095031;28;20554;-72
2022/09/16 03:04:18;;;;;;;13.67;7.87;;;;;;;;;;5095283;28;20825;-72
2022/09/16 03:06:46;;;;;;;8.40;7.30;;;;;;;;;;5095295;28;20454;-72
2022/09/16 03:09:17;;;;;;;9.63;7.63;;;;;;;;;;5095154;28;20438;-72
2022/09/16 03:11:59;;;;;;;10.97;8.00;;;;;;;;;;5095291;28;21000;-72
2022/09/16 03:14:47;;;;;;;9.17;7.07;;;;;;;;;;5094567;28;20467;-72
2022/09/16 03:17:20;;;;;;;14.90;7.50;;;;;;;;;;5090236;28;20499;-72
2022/09/16 03:19:55;;;;;;;10.47;9.37;;;;;;;;;;5094886;28;20454;-72
2022/09/16 03:22:26;;;;;;;9.63;7.87;;;;;;;;;;5094352;28;21007;-72
2022/09/16 03:24:59;;;;;;;8.80;7.60;;;;;;;;;;5094503;28;20474;-72
2022/09/16 03:27:30;;;;;;;11.60;8.90;;;;;;;;;;5094264;28;20451;-72
2022/09/16 03:30:01;;;;;;;9.33;8.07;;;;;;;;;;5094827;28;20459;-72
2022/09/16 03:32:31;;;;;;;8.73;7.80;;;;;;;;;;5094638;28;20446;-72
2022/09/16 03:35:01;;;;;;;15.30;8.03;;;;;;;;;;5094291;28;20505;-72
2022/09/16 03:37:30;;;;;;;10.80;7.67;;;;;;;;;;5094415;28;20897;-72
2022/09/16 03:40:00;;;;;;;11.63;7.97;;;;;;;;;;5094522;28;20546;-71
2022/09/16 03:42:27;;;;;;;12.40;9.47;;;;;;;;;;5094368;28;20838;-71
2022/09/16 03:44:54;;;;;;;13.10;9.27;;;;;;;;;;5094119;28;20469;-72
2022/09/16 03:47:21;;;;;;;8.83;7.23;;;;;;;;;;5094216;28;20813;-72
2022/09/16 03:49:50;;;;;;;9.50;8.50;;;;;;;;;;5094299;28;20447;-72
2022/09/16 03:52:18;;;;;;;8.63;7.77;;;;;;;;;;5094254;28;20447;-72
2022/09/16 03:54:45;;;;;;;10.43;9.33;;;;;;;;;;5094135;28;20471;-72
2022/09/16 03:57:14;;;;;;;15.77;9.63;;;;;;;;;;5094213;28;20446;-72
2022/09/16 03:59:41;;;;;;;11.33;9.00;;;;;;;;;;5094005;28;20454;-72
2022/09/16 04:02:08;;;;;;;12.43;10.13;;;;;;;;;;5093972;28;20454;-72
2022/09/16 04:04:35;;;;;;;10.40;9.10;;;;;;;;;;5093544;28;20490;-72
2022/09/16 04:07:02;;;;;;;13.73;10.20;;;;;;;;;;5093956;28;20461;-72
2022/09/16 04:09:29;;;;;;;10.50;8.83;;;;;;;;;;5093825;28;20454;-72
2022/09/16 04:11:57;;;;;;;11.37;8.93;;;;;;;;;;5093935;28;20446;-72
2022/09/16 04:14:25;;;;;;;13.93;10.13;;;;;;;;;;5093306;28;21003;-72
2022/09/16 04:16:52;;;;;;;17.70;10.23;;;;;;;;;;5093885;28;20446;-72
2022/09/16 04:19:19;;;;;;;15.00;10.07;;;;;;;;;;5093740;28;20451;-72
2022/09/16 04:21:46;;;;;;;15.37;9.97;;;;;;;;;;5093970;28;20461;-72
2022/09/16 04:24:13;;;;;;;14.90;10.20;;;;;;;;;;5092749;28;20497;-72
2022/09/16 04:26:41;;;;;;;12.27;9.10;;;;;;;;;;5093555;28;20974;-72
2022/09/16 04:29:08;;;;;;;16.50;10.57;;;;;;;;;;5093645;28;20830;-72
2022/09/16 04:31:36;;;;;;;12.53;9.57;;;;;;;;;;5093668;28;20458;-72
2022/09/16 04:34:04;;;;;;;11.77;9.00;;;;;;;;;;5093278;28;20837;-72
2022/09/16 04:36:32;;;;;;;12.07;9.43;;;;;;;;;;5093337;28;20450;-72
2022/09/16 04:38:59;;;;;;;19.13;12.27;;;;;;;;;;5093138;28;20940;-72
2022/09/16 04:41:27;;;;;;;13.60;10.70;;;;;;;;;;5092864;28;20470;-72
2022/09/16 04:43:55;;;;;;;15.53;9.70;;;;;;;;;;5092976;28;20505;-72
2022/09/16 04:46:22;;;;;;;16.27;10.00;;;;;;;;;;5093531;28;20447;-72
2022/09/16 04:48:51;;;;;;;13.03;9.93;;;;;;;;;;5093233;28;20450;-72
2022/09/16 04:51:19;;;;;;;13.87;9.40;;;;;;;;;;5093264;28;20982;-72
2022/09/16 04:53:47;;;;;;;13.80;10.53;;;;;;;;;;5092886;28;20893;-72
2022/09/16 04:56:15;;;;;;;15.27;10.77;;;;;;;;;;5093160;28;20450;-72
2022/09/16 04:58:42;;;;;;;12.73;9.53;;;;;;;;;;5093252;28;20932;-72
2022/09/16 05:01:11;;;;;;;8.57;7.67;;;;;;;;;;5093110;28;20458;-72
2022/09/16 05:03:38;;;;;;;9.27;7.20;;;;;;;;;;5092626;28;20550;-72
2022/09/16 05:06:08;;;;;;;8.93;7.43;;;;;;;;;;5093098;28;20822;-72
2022/09/16 05:08:35;;;;;;;11.77;7.80;;;;;;;;;;5092997;28;20451;-72
2022/09/16 05:11:04;;;;;;;7.17;6.17;;;;;;;;;;5093223;28;20458;-72
2022/09/16 05:13:31;;;;;;;7.93;7.03;;;;;;;;;;5092664;28;20454;-72
2022/09/16 05:16:01;;;;;;;8.83;7.80;;;;;;;;;;5093287;28;20447;-72
2022/09/16 05:18:28;;;;;;;10.40;8.43;;;;;;;;;;5092922;28;20477;-72
2022/09/16 05:20:57;;;;;;;10.57;7.70;;;;;;;;;;5093257;28;20446;-72
2022/09/16 05:23:26;;;;;;;12.00;8.53;;;;;;;;;;5092356;28;20482;-72
2022/09/16 05:25:53;;;;;;;11.70;8.57;;;;;;;;;;5092924;28;20525;-72
2022/09/16 05:28:20;;;;;;;8.77;7.90;;;;;;;;;;5093066;28;20462;-72
2022/09/16 05:30:47;;;;;;;12.80;8.80;;;;;;;;;;5092980;28;20450;-72
2022/09/16 05:33:14;;;;;;;8.40;7.43;;;;;;;;;;5092943;28;20823;-72
2022/09/16 05:35:42;;;;;;;12.73;8.00;;;;;;;;;;5092531;28;20477;-72
2022/09/16 05:38:09;;;;;;;9.33;7.70;;;;;;;;;;5092792;28;20960;-71
2022/09/16 05:40:37;;;;;;;16.47;7.80;;;;;;;;;;5092517;28;20466;-72
2022/09/16 05:43:04;;;;;;;13.93;8.37;;;;;;;;;;5092794;28;20994;-72
2022/09/16 05:45:31;;;;;;;10.57;8.03;;;;;;;;;;5092421;28;20999;-71
2022/09/16 05:47:59;;;;;;;14.30;8.90;;;;;;;;;;5092796;28;20450;-71
2022/09/16 05:50:26;;;;;;;12.63;9.50;;;;;;;;;;5092731;28;20446;-72
2022/09/16 05:52:54;;;;;;;13.67;10.50;;;;;;;;;;5096627;28;20943;-72
2022/09/16 05:55:21;;;;;;;8.73;7.83;;;;;;;;;;5096127;28;20557;-72
2022/09/16 05:57:50;;;;;;;11.77;9.77;;;;;;;;;;5096581;28;20450;-72
2022/09/16 06:00:17;;;;;;;8.90;7.80;;;;;;;;;;5096357;28;20447;-72
2022/09/16 06:02:44;;;;;;;8.60;7.80;;;;;;;;;;5096343;28;20916;-72
2022/09/16 06:05:12;;;;;;;8.67;7.60;;;;;;;;;;5096015;28;20462;-72
2022/09/16 06:07:39;;;;;;;16.20;7.53;;;;;;;;;;5096136;28;20459;-72
2022/09/16 06:10:07;;;;;;;10.00;8.17;;;;;;;;;;5096272;28;20446;-72
2022/09/16 06:12:34;;;;;;;15.07;9.33;;;;;;;;;;5096117;28;20458;-72
2022/09/16 06:15:02;;;;;;;13.10;8.20;;;;;;;;;;5096018;28;20462;-71
2022/09/16 06:17:29;;;;;;;17.73;8.77;;;;;;;;;;5095979;28;20451;-71
2022/09/16 06:19:56;;;;;;;8.87;7.97;;;;;;;;;;5096051;28;20450;-71
2022/09/16 06:22:23;;;;;;;8.80;7.77;;;;;;;;;;5095533;28;20461;-72
2022/09/16 06:24:51;;;;;;;9.20;7.73;;;;;;;;;;5095713;28;20482;-71
2022/09/16 06:27:19;;;;;;;8.23;7.03;;;;;;;;;;5095999;28;20458;-72
2022/09/16 06:29:46;;;;;;;9.40;8.37;;;;;;;;;;5095935;28;20810;-72
2022/09/16 06:32:14;;;;;;;16.03;7.60;;;;;;;;;;5096081;28;20479;-72
2022/09/16 06:34:41;;;;;;;15.20;8.63;;;;;;;;;;5095390;28;20478;-71
2022/09/16 06:37:11;;;;;;;9.67;8.60;;;;;;;;;;5095837;28;20970;-71
2022/09/16 06:39:38;;;;;;;7.87;7.07;;;;;;;;;;5095619;28;20895;-71
2022/09/16 06:42:07;;;;;;;8.10;6.83;;;;;;;;;;5095650;28;20454;-71
2022/09/16 06:44:34;;;;;;;8.10;7.23;;;;;;;;;;5094990;28;20502;-72
2022/09/16 06:47:01;;;;;;;8.03;7.13;;;;;;;;;;5095626;28;20453;-72
2022/09/16 06:49:30;;;;;;;8.77;7.43;;;;;;;;;;5095328;28;20451;-71
2022/09/16 06:51:57;;;;;;;10.80;7.13;;;;;;;;;;5095677;28;20457;-71
2022/09/16 06:54:24;;;;;;;10.13;7.60;;;;;;;;;;5095128;28;20466;-71
2022/09/16 06:56:51;;;;;;;9.20;7.20;;;;;;;;;;5095415;28;20959;-71
2022/09/16 06:59:18;;;;;;;8.93;8.00;;;;;;;;;;5095288;28;20453;-71
2022/09/16 07:01:45;;;;;;;8.33;7.43;;;;;;;;;;5095222;28;20470;-71
2022/09/16 07:04:13;;;;;;;9.20;7.17;;;;;;;;;;5094124;28;20868;-71
2022/09/16 07:06:41;;;;;;;16.00;8.27;;;;;;;;;;5095274;28;20451;-71
2022/09/16 07:09:09;;;;;;;9.27;7.90;;;;;;;;;;5095261;28;20456;-71
2022/09/16 07:11:36;;;;;;;8.80;7.90;;;;;;;;;;5094910;28;20568;-71
2022/09/16 07:14:03;;;;;;;9.80;7.80;;;;;;;;;;5094730;28;20475;-71
2022/09/16 07:16:30;;;;;;;10.40;8.53;;;;;;;;;;5094871;28;20936;-71
2022/09/16 07:18:59;;;;;;;11.43;9.87;;;;;;;;;;5087550;28;20451;-72
2022/09/16 07:21:28;;;;;;;12.90;9.03;;;;;;;;;;5092859;28;20461;-71
2022/09/16 07:23:58;;;;;;;10.73;9.00;;;;;;;;;;5092311;28;20499;-71
2022/09/16 07:26:26;;;;;;;13.23;9.20;;;;;;;;;;5092554;28;20477;-72
2022/09/16 07:28:53;;;;;;;14.20;8.57;;;;;;;;;;5093141;28;20515;-71
2022/09/16 07:31:23;;;;;;;14.00;8.10;;;;;;;;;;5092148;28;20462;-72
2022/09/16 07:33:50;;;;;;;14.10;8.23;;;;;;;;;;5092951;28;20475;-72
2022/09/16 07:36:19;;;;;;;10.30;7.93;;;;;;;;;;5092994;28;20450;-72
2022/09/16 07:38:46;;;;;;;11.47;8.47;;;;;;;;;;5090214;28;20465;-72
2022/09/16 07:41:15;;;;;;;10.20;8.17;;;;;;;;;;5072307;28;20463;-71
2022/09/16 07:43:43;;;;;;;8.97;7.30;;;;;;;;;;5072215;28;20582;-72
2022/09/16 07:46:11;;;;;;;9.53;8.00;;;;;;;;;;5088600;28;20959;-71
2022/09/16 07:48:39;;;;;;;12.03;8.03;;;;;;;;;;5093831;28;20963;-71
2022/09/16 07:51:07;;;;;;;10.10;8.13;;;;;;;;;;5094227;28;20451;-71
2022/09/16 07:53:35;;;;;;;10.70;9.60;;;;;;;;;;5093660;28;20453;-71
2022/09/16 07:56:03;;;;;;;12.67;10.40;;;;;;;;;;5094054;28;20454;-71
2022/09/16 07:58:31;;;;;;;11.70;10.33;;;;;;;;;;5094187;28;20936;-71
2022/09/16 08:00:58;;;;;;;14.53;8.30;;;;;;;;;;5094018;28;20446;-71
2022/09/16 08:03:26;;;;;;;17.13;11.30;;;;;;;;;;5093782;28;20458;-71
2022/09/16 08:05:53;;;;;;;10.20;8.90;;;;;;;;;;5093941;28;20457;-71
2022/09/16 08:08:20;;;;;;;13.80;9.33;;;;;;;;;;5094012;28;20800;-71
2022/09/16 08:10:53;;;;;;;12.23;8.27;;;;;;;;;;5093949;28;20458;-71
2022/09/16 08:13:20;;;;;;;13.17;10.53;;;;;;;;;;5093970;28;20442;-71
2022/09/16 08:15:49;;;;;;;9.67;7.77;;;;;;;;;;5092768;28;20473;-72
2022/09/16 08:18:16;;;;;;;10.53;9.40;;;;;;;;;;5093680;28;20447;-72
2022/09/16 08:20:43;;;;;;;12.67;9.70;;;;;;;;;;5093697;28;20454;-72
2022/09/16 08:23:11;;;;;;;11.73;10.20;;;;;;;;;;5093476;28;20450;-72
2022/09/16 08:25:39;;;;;;;16.43;10.80;;;;;;;;;;5093192;28;20491;-72
2022/09/16 08:28:06;;;;;;;11.17;9.97;;;;;;;;;;5093598;28;20454;-72
2022/09/16 08:30:33;;;;;;;15.03;11.60;;;;;;;;;;5093497;28;20869;-72
2022/09/16 08:33:01;;;;;;;16.83;11.00;;;;;;;;;;5093653;28;20461;-72
2022/09/16 08:35:28;;;;;;;12.50;10.07;;;;;;;;;;5093236;28;20992;-72
2022/09/16 08:37:56;;;;;;;16.73;12.30;;;;;;;;;;5093600;28;20473;-72
2022/09/16 08:40:25;;;;;;;18.33;12.20;;;;;;;;;;5093538;28;20447;-72
2022/09/16 08:42:56;;;;;;;20.93;10.80;;;;;;;;;;5093359;28;20821;-72
2022/09/16 08:45:28;;;;;;;16.83;12.40;;;;;;;;;;5093089;28;20486;-72
2022/09/16 08:48:12;;;;;;;15.60;12.60;;;;;;;;;;5093443;28;20875;-72
2022/09/16 08:50:41;;;;;;;16.80;12.00;;;;;;;;;;5093234;28;20455;-72
2022/09/16 08:53:13;;;;;;;15.43;12.00;;;;;;;;;;5093639;28;20924;-72
2022/09/16 08:55:41;;;;;;;17.90;11.27;;;;;;;;;;5092944;28;20858;-72
2022/09/16 08:58:13;;;;;;;14.40;10.90;;;;;;;;;;5093106;28;20454;-71
2022/09/16 09:00:41;;;;;;;18.07;12.03;;;;;;;;;;5093378;28;20477;-71
2022/09/16 09:03:14;;;;;;;15.63;9.43;;;;;;;;;;5093300;28;20450;-71
2022/09/16 09:05:46;;;;;;;15.50;11.13;;;;;;;;;;5092669;28;20494;-71
2022/09/16 09:08:17;;;;;;;15.33;11.80;;;;;;;;;;5093236;28;20449;-71
2022/09/16 09:10:48;;;;;;;12.83;10.80;;;;;;;;;;5092989;28;20459;-71
2022/09/16 09:13:22;;;;;;;13.20;10.50;;;;;;;;;;5093023;28;20455;-71
2022/09/16 09:15:55;;;;;;;15.63;11.63;;;;;;;;;;5092895;28;20465;-71
2022/09/16 09:18:30;;;;;;;19.73;11.50;;;;;;;;;;5093036;28;20454;-71
2022/09/16 09:21:04;;;;;;;17.90;10.60;;;;;;;;;;5093095;28;20446;-71
2022/09/16 09:23:40;;;;;;;16.70;11.27;;;;;;;;;;5092440;28;20936;-71
2022/09/16 09:26:12;;;;;;;15.93;10.33;;;;;;;;;;5094224;28;20444;-71
2022/09/16 09:28:51;;;;;;;20.90;9.70;;;;;;;;;;5096956;28;20450;-71
2022/09/16 09:31:21;;;;;;;15.40;9.67;;;;;;;;;;5097089;28;20822;-71
2022/09/16 09:33:53;;;;;;;17.97;10.63;;;;;;;;;;5096741;28;20470;-71
2022/09/16 09:36:26;;;;;;;13.07;8.60;;;;;;;;;;5096787;28;20450;-71
2022/09/16 09:39:01;;;;;;;10.70;8.50;;;;;;;;;;5097046;28;20469;-72
2022/09/16 09:41:31;;;;;;;14.70;10.07;;;;;;;;;;5096533;28;20469;-72
2022/09/16 09:44:02;;;;;;;13.37;8.80;;;;;;;;;;5096062;28;20481;-71
2022/09/16 09:46:31;;;;;;;11.20;9.20;;;;;;;;;;5096707;28;20947;-72
2022/09/16 09:49:03;;;;;;;8.57;7.67;;;;;;;;;;5096683;28;20450;-71
2022/09/16 09:51:32;;;;;;;10.73;9.57;;;;;;;;;;5096724;28;20438;-71
2022/09/16 09:54:01;;;;;;;11.13;8.27;;;;;;;;;;5096244;28;20470;-71
2022/09/16 09:56:31;;;;;;;13.73;9.00;;;;;;;;;;5096461;28;20816;-71
2022/09/16 09:59:02;;;;;;;14.00;8.37;;;;;;;;;;5096711;28;20447;-71
2022/09/16 10:01:29;;;;;;;11.87;8.67;;;;;;;;;;5096421;28;20473;-71
2022/09/16 10:03:59;;;;;;;13.97;9.30;;;;;;;;;;5096063;28;20481;-71
2022/09/16 10:06:29;;;;;;;12.27;8.37;;;;;;;;;;5096201;28;20462;-71
2022/09/16 10:08:57;;;;;;;10.60;7.57;;;;;;;;;;5096485;28;20826;-71
2022/09/16 10:11:25;;;;;;;12.53;8.37;;;;;;;;;;5096140;28;20943;-71
2022/09/16 10:13:53;;;;;;;9.40;7.77;;;;;;;;;;5095970;28;20485;-71
2022/09/16 10:16:21;;;;;;;9.23;7.50;;;;;;;;;;5096123;28;20962;-71
2022/09/16 10:18:55;;;;;;;10.03;7.90;;;;;;;;;;5096308;28;20932;-71
2022/09/16 10:21:22;;;;;;;9.63;8.73;;;;;;;;;;5096074;28;20450;-71
2022/09/16 10:23:56;;;;;;;9.23;8.20;;;;;;;;;;5095319;28;20816;-72
2022/09/16 10:26:24;;;;;;;10.07;8.70;;;;;;;;;;5095817;28;20999;-72
2022/09/16 10:28:55;;;;;;;9.70;7.40;;;;;;;;;;5096251;28;20954;-72
2022/09/16 10:31:23;;;;;;;10.80;8.50;;;;;;;;;;5095850;28;20455;-72
2022/09/16 10:33:50;;;;;;;10.43;9.40;;;;;;;;;;5095583;28;20467;-72
2022/09/16 10:36:19;;;;;;;10.40;8.50;;;;;;;;;;5095827;28;20453;-72
2022/09/16 10:38:48;;;;;;;11.30;9.83;;;;;;;;;;5094738;28;20451;-72
2022/09/16 10:41:17;;;;;;;16.83;9.00;;;;;;;;;;5095604;28;20463;-72
2022/09/16 10:43:48;;;;;;;10.50;8.60;;;;;;;;;;5095504;28;20459;-72
2022/09/16 10:46:15;;;;;;;13.73;10.20;;;;;;;;;;5095490;28;20497;-72
2022/09/16 10:48:43;;;;;;;12.87;9.13;;;;;;;;;;5095585;28;20944;-72
2022/09/16 10:51:21;;;;;;;11.00;8.50;;;;;;;;;;5095471;28;20456;-72
2022/09/16 10:53:52;;;;;;;9.53;8.57;;;;;;;;;;5095453;28;20564;-72
2022/09/16 10:56:22;;;;;;;14.73;10.23;;;;;;;;;;5095280;28;20451;-72
2022/09/16 10:58:49;;;;;;;17.97;9.07;;;;;;;;;;5095313;28;21062;-72
2022/09/16 11:01:26;;;;;;;10.03;8.63;;;;;;;;;;5095271;28;20443;-72
2022/09/16 11:04:05;;;;;;;12.20;7.97;;;;;;;;;;5095174;28;20544;-72
2022/09/16 11:06:37;;;;;;;11.43;9.13;;;;;;;;;;5095229;28;20528;-72
2022/09/16 11:09:09;;;;;;;9.27;7.77;;;;;;;;;;5095198;28;20455;-72
2022/09/16 11:11:51;;;;;;;12.63;9.30;;;;;;;;;;5095117;28;20447;-72
2022/09/16 11:14:26;;;;;;;13.80;9.70;;;;;;;;;;5094827;28;20837;-72
2022/09/16 11:17:03;;;;;;;14.03;10.20;;;;;;;;;;5095039;28;20446;-72
2022/09/16 11:19:35;;;;;;;13.10;9.93;;;;;;;;;;5094758;28;20932;-72
2022/09/16 11:22:12;;;;;;;11.57;9.83;;;;;;;;;;5095083;28;20451;-72
2022/09/16 11:24:52;;;;;;;15.10;10.80;;;;;;;;;;5094301;28;20987;-72
2022/09/16 11:27:24;;;;;;;12.63;9.83;;;;;;;;;;5094742;28;20455;-72
2022/09/16 11:30:09;;;;;;;14.10;10.87;;;;;;;;;;5094754;28;20454;-72
2022/09/16 11:32:44;;;;;;;12.50;9.33;;;;;;;;;;5094844;28;20446;-72
2022/09/16 11:35:27;;;;;;;12.47;9.57;;;;;;;;;;5094460;28;20481;-72
2022/09/16 11:37:58;;;;;;;10.87;9.70;;;;;;;;;;5094866;28;20537;-72
2022/09/16 11:40:32;;;;;;;11.47;9.87;;;;;;;;;;5094512;28;20454;-71
2022/09/16 11:43:08;;;;;;;12.97;10.17;;;;;;;;;;5094658;28;20459;-72
2022/09/16 11:45:41;;;;;;;10.77;9.60;;;;;;;;;;5094079;28;20490;-72
2022/09/16 11:48:30;;;;;;;17.03;9.27;;;;;;;;;;5094472;28;20451;-71
2022/09/16 11:51:00;;;;;;;16.00;11.43;;;;;;;;;;5094479;28;20454;-71
2022/09/16 11:53:37;;;;;;;16.57;12.47;;;;;;;;;;5093962;28;20831;-73
2022/09/16 11:56:05;;;;;;;17.93;14.33;;;;;;;;;;5094197;28;20472;-72
2022/09/16 11:58:37;;;;;;;23.23;13.93;;;;;;;;;;5094117;28;20493;-72
2022/09/16 12:01:07;;;;;;;21.83;14.43;;;;;;;;;;5094102;28;20463;-72
2022/09/16 12:03:38;;;;;;;24.10;16.23;;;;;;;;;;5093830;28;21049;-72
2022/09/16 12:06:10;;;;;;;19.73;14.20;;;;;;;;;;5094054;28;20489;-72
2022/09/16 12:08:42;;;;;;;18.53;15.00;;;;;;;;;;5094119;28;20553;-72
2022/09/16 12:11:14;;;;;;;18.90;13.90;;;;;;;;;;5094114;28;20450;-72
2022/09/16 12:13:45;;;;;;;20.10;12.43;;;;;;;;;;5093869;28;20450;-72
2022/09/16 12:16:15;;;;;;;18.63;13.53;;;;;;;;;;5093858;28;20477;-71
2022/09/16 12:18:48;;;;;;;15.80;12.17;;;;;;;;;;5093884;28;20455;-72
2022/09/16 12:21:18;;;;;;;17.10;11.87;;;;;;;;;;5093918;28;20825;-72
2022/09/16 12:23:47;;;;;;;16.70;13.37;;;;;;;;;;5093126;28;20507;-72
2022/09/16 12:26:17;;;;;;;17.60;12.67;;;;;;;;;;5093574;28;20551;-72
2022/09/16 12:28:51;;;;;;;15.60;11.73;;;;;;;;;;5093786;28;20879;-72
2022/09/16 12:31:20;;;;;;;16.57;13.27;;;;;;;;;;5093771;28;20450;-72
2022/09/16 12:33:50;;;;;;;19.23;14.30;;;;;;;;;;5093387;28;20557;-72
2022/09/16 12:36:21;;;;;;;17.87;13.60;;;;;;;;;;5093554;28;20443;-72
2022/09/16 12:38:48;;;;;;;18.83;13.60;;;;;;;;;;5093525;28;20474;-72
2022/09/16 12:41:36;;;;;;;26.20;14.37;;;;;;;;;;5093516;28;20528;-72
2022/09/16 12:44:24;;;;;;;16.43;12.80;;;;;;;;;;5088273;28;20476;-72
2022/09/16 12:47:09;;;;;;;13.97;11.40;;;;;;;;;;5088399;28;20486;-72
2022/09/16 12:49:57;;;;;;;14.50;11.13;;;;;;;;;;5093377;28;20451;-71
2022/09/16 12:52:33;;;;;;;12.90;10.37;;;;;;;;;;5093504;28;20947;-71
2022/09/16 12:55:30;;;;;;;11.80;10.00;;;;;;;;;;5093249;28;20467;-72
2022/09/16 12:58:03;;;;;;;14.53;10.77;;;;;;;;;;5093246;28;20962;-71
2022/09/16 13:00:33;;;;;;;15.90;9.50;;;;;;;;;;5092578;28;20455;-71
2022/09/16 13:03:07;;;;;;;12.13;9.17;;;;;;;;;;5093535;28;20438;-72
2022/09/16 13:05:35;;;;;;;14.43;11.13;;;;;;;;;;5092831;28;20486;-72
2022/09/16 13:08:04;;;;;;;14.03;9.10;;;;;;;;;;5093294;28;20450;-72
2022/09/16 13:10:32;;;;;;;13.20;10.00;;;;;;;;;;5093128;28;20458;-71
2022/09/16 13:13:00;;;;;;;12.90;9.20;;;;;;;;;;5093257;28;20451;-72
2022/09/16 13:15:28;;;;;;;13.00;9.20;;;;;;;;;;5092874;28;20467;-72
2022/09/16 13:17:56;;;;;;;12.90;10.20;;;;;;;;;;5093181;28;20454;-72
2022/09/16 13:20:28;;;;;;;14.03;9.80;;;;;;;;;;5093056;28;20455;-72
2022/09/16 13:23:07;;;;;;;12.27;8.70;;;;;;;;;;5092929;28;20874;-73
2022/09/16 13:25:37;;;;;;;10.63;8.87;;;;;;;;;;5092744;28;20500;-72
2022/09/16 13:28:05;;;;;;;11.43;8.83;;;;;;;;;;5092986;28;20459;-72
2022/09/16 13:30:35;;;;;;;14.20;8.60;;;;;;;;;;5092926;28;20510;-72
2022/09/16 13:33:04;;;;;;;14.23;7.60;;;;;;;;;;5092981;28;20971;-72
2022/09/16 13:35:44;;;;;;;10.43;8.60;;;;;;;;;;5092592;28;20541;-72
2022/09/16 13:38:21;;;;;;;13.37;8.63;;;;;;;;;;5093085;28;20480;-73
2022/09/16 13:40:53;;;;;;;8.70;7.60;;;;;;;;;;5092748;28;20947;-73
2022/09/16 13:43:29;;;;;;;13.83;9.27;;;;;;;;;;5092690;28;20958;-72
2022/09/16 13:46:01;;;;;;;12.33;10.20;;;;;;;;;;5092695;28;20492;-72
2022/09/16 13:48:29;;;;;;;15.53;9.70;;;;;;;;;;5092784;28;20455;-72
2022/09/16 13:50:58;;;;;;;11.17;9.70;;;;;;;;;;5093011;28;20458;-72
2022/09/16 13:53:29;;;;;;;14.80;8.90;;;;;;;;;;5092525;28;20450;-72
2022/09/16 13:55:58;;;;;;;12.27;9.77;;;;;;;;;;5092756;28;20442;-72
2022/09/16 13:58:28;;;;;;;13.13;5.87;;;;;;;;;;5092656;28;20450;-72
2022/09/16 14:01:02;;;;;;;9.20;7.70;;;;;;;;;;5092712;28;20847;-72
2022/09/16 14:03:36;;;;;;;13.20;9.17;;;;;;;;;;5092403;28;20450;-73
2022/09/16 14:06:19;;;;;;;8.23;7.13;;;;;;;;;;5092692;28;21022;-73
2022/09/16 14:08:50;;;;;;;6.50;5.87;;;;;;;;;;5092919;28;20450;-72
2022/09/16 14:11:20;;;;;;;8.13;6.90;;;;;;;;;;5092590;28;20831;-72
2022/09/16 14:13:50;;;;;;;8.30;6.80;;;;;;;;;;5095993;28;20477;-73
2022/09/16 14:16:19;;;;;;;9.33;7.00;;;;;;;;;;5096328;28;20821;-72
2022/09/16 14:18:53;;;;;;;10.50;6.93;;;;;;;;;;5096218;28;20952;-73
2022/09/16 14:21:23;;;;;;;11.80;7.60;;;;;;;;;;5096193;28;20868;-72
2022/09/16 14:23:50;;;;;;;10.50;7.40;;;;;;;;;;5095618;28;20489;-73
2022/09/16 14:26:18;;;;;;;7.23;6.43;;;;;;;;;;5096049;28;20852;-72
2022/09/16 14:28:46;;;;;;;9.20;7.33;;;;;;;;;;5096091;28;20447;-73
2022/09/16 14:31:15;;;;;;;10.00;7.53;;;;;;;;;;5095904;28;20450;-72
2022/09/16 14:33:43;;;;;;;8.33;7.27;;;;;;;;;;5095574;28;20454;-72
2022/09/16 14:36:12;;;;;;;9.07;7.53;;;;;;;;;;5096149;28;20836;-72
2022/09/16 14:38:43;;;;;;;8.90;7.50;;;;;;;;;;5095778;28;20500;-72
2022/09/16 14:41:11;;;;;;;7.93;6.50;;;;;;;;;;5095797;28;20461;-72
2022/09/16 14:43:39;;;;;;;16.50;6.50;;;;;;;;;;5095238;28;20454;-72
2022/09/16 14:46:07;;;;;;;6.83;6.13;;;;;;;;;;5095620;28;20867;-72
2022/09/16 14:48:36;;;;;;;6.33;5.20;;;;;;;;;;5095540;28;20446;-72